createdAt,value
2018-04-23T00:00:37.287Z,98542.73
2018-04-23T00:03:04.684Z,98542.81
2018-04-23T00:05:33.377Z,98540.91
2018-04-23T00:08:00.788Z,98541.17
2018-04-23T00:10:28.524Z,98545.05
2018-04-23T00:12:56.031Z,98543.92
2018-04-23T00:15:23.464Z,98537.64
2018-04-23T00:17:50.861Z,98537.47
2018-04-23T00:20:18.340Z,98533.50
2018-04-23T00:22:45.733Z,98536.10
2018-04-23T00:25:13.780Z,98543.27
2018-04-23T00:27:41.213Z,98538.28
2018-04-23T00:30:09.908Z,98542.02
2018-04-23T00:32:37.309Z,98545.66
2018-04-23T00:35:04.734Z,98543.88
2018-04-23T00:37:32.198Z,98540.22
2018-04-23T00:39:59.601Z,98532.84
2018-04-23T00:42:26.986Z,98543.31
2018-04-23T00:44:55.181Z,98538.10
2018-04-23T00:47:22.566Z,98544.98
2018-04-23T00:49:51.303Z,98546.08
2018-04-23T00:52:18.685Z,98543.48
2018-04-23T00:54:46.075Z,98540.17
2018-04-23T00:57:13.459Z,98542.52
2018-04-23T00:59:40.942Z,98543.34
2018-04-23T01:02:08.339Z,98542.86
2018-04-23T01:04:35.735Z,98544.20
2018-04-23T01:07:03.121Z,98542.48
2018-04-23T01:09:30.527Z,98541.89
2018-04-23T01:11:58.824Z,98548.20
2018-04-23T01:14:26.240Z,98547.11
2018-04-23T01:16:53.711Z,98551.27
2018-04-23T01:19:22.079Z,98546.52
2018-04-23T01:21:49.463Z,98550.66
2018-04-23T01:24:16.906Z,98547.36
2018-04-23T01:26:44.439Z,98552.07
2018-04-23T01:29:11.827Z,98546.20
2018-04-23T01:31:39.222Z,98548.67
2018-04-23T01:34:06.608Z,98556.39
2018-04-23T01:36:33.988Z,98548.52
2018-04-23T01:39:01.381Z,98553.15
2018-04-23T01:41:28.762Z,98555.41
2018-04-23T01:43:56.627Z,98554.64
2018-04-23T01:46:24.344Z,98557.79
2018-04-23T01:48:51.745Z,98565.77
2018-04-23T01:51:19.155Z,98568.18
2018-04-23T01:53:46.543Z,98571.16
2018-04-23T01:56:13.935Z,98572.08
2018-04-23T01:58:41.343Z,98578.06
2018-04-23T02:01:08.891Z,98579.71
2018-04-23T02:03:36.282Z,98571.02
2018-04-23T02:06:03.679Z,98565.95
2018-04-23T02:08:31.257Z,98570.48
2018-04-23T02:10:59.396Z,98575.07
2018-04-23T02:13:26.779Z,98575.82
2018-04-23T02:15:55.348Z,98578.40
2018-04-23T02:18:22.739Z,98574.31
2018-04-23T02:20:50.140Z,98579.72
2018-04-23T02:23:17.522Z,98575.73
2018-04-23T02:25:44.908Z,98571.26
2018-04-23T02:28:12.304Z,98572.75
2018-04-23T02:30:39.700Z,98571.92
2018-04-23T02:33:07.566Z,98577.05
2018-04-23T02:35:34.953Z,98568.19
2018-04-23T02:38:02.336Z,98570.75
2018-04-23T02:40:29.737Z,98568.59
2018-04-23T02:42:57.133Z,98570.59
2018-04-23T02:45:25.009Z,98570.50
2018-04-23T02:47:52.395Z,98568.27
2018-04-23T02:50:19.832Z,98568.59
2018-04-23T02:52:47.534Z,98568.16
2018-04-23T02:55:14.919Z,98567.51
2018-04-23T02:57:42.317Z,98555.48
2018-04-23T03:00:09.703Z,98561.46
2018-04-23T03:02:37.128Z,98558.63
2018-04-23T03:05:04.496Z,98559.39
2018-04-23T03:07:31.889Z,98557.05
2018-04-23T03:09:59.403Z,98564.95
2018-04-23T03:12:27.707Z,98558.88
2018-04-23T03:14:55.095Z,98558.95
2018-04-23T03:17:22.498Z,98555.52
2018-04-23T03:19:49.904Z,98554.23
2018-04-23T03:22:17.300Z,98561.95
2018-04-23T03:24:45.360Z,98554.09
2018-04-23T03:27:12.743Z,98554.81
2018-04-23T03:29:40.137Z,98556.65
2018-04-23T03:32:07.525Z,98552.02
2018-04-23T03:34:34.945Z,98548.03
2018-04-23T03:37:02.387Z,98552.06
2018-04-23T03:39:29.724Z,98553.27
2018-04-23T03:41:57.303Z,98554.56
2018-04-23T03:44:24.685Z,98553.83
2018-04-23T03:46:52.080Z,98554.59
2018-04-23T03:49:19.453Z,98551.50
2018-04-23T03:51:46.898Z,98558.13
2018-04-23T03:54:14.319Z,98559.03
2018-04-23T03:56:41.734Z,98550.33
2018-04-23T03:59:09.116Z,98550.72
2018-04-23T04:01:36.572Z,98550.20
2018-04-23T04:04:03.974Z,98551.64
2018-04-23T04:06:31.366Z,98556.37
2018-04-23T04:08:58.761Z,98551.88
2018-04-23T04:11:26.545Z,98551.56
2018-04-23T04:14:05.570Z,98555.45
2018-04-23T04:16:44.716Z,98554.87
2018-04-23T04:19:12.800Z,98559.48
2018-04-23T04:21:40.203Z,98559.73
2018-04-23T04:24:07.608Z,98558.65
2018-04-23T04:26:34.996Z,98554.64
2018-04-23T04:29:02.417Z,98559.55
2018-04-23T04:31:29.908Z,98559.28
2018-04-23T04:33:57.293Z,98556.11
2018-04-23T04:36:24.686Z,98547.47
2018-04-23T04:38:52.080Z,98549.95
2018-04-23T04:41:19.472Z,98548.93
2018-04-23T04:43:47.389Z,98555.74
2018-04-23T04:46:14.778Z,98562.23
2018-04-23T04:48:42.242Z,98558.42
2018-04-23T04:51:09.632Z,98558.72
2018-04-23T04:53:37.040Z,98564.84
2018-04-23T04:56:04.524Z,98563.13
2018-04-23T04:58:31.920Z,98559.30
2018-04-23T05:01:00.136Z,98569.23
2018-04-23T05:03:28.040Z,98565.31
2018-04-23T05:05:55.587Z,98562.61
2018-04-23T05:08:22.907Z,98569.88
2018-04-23T05:10:50.284Z,98565.51
2018-04-23T05:13:17.681Z,98566.35
2018-04-23T05:15:45.076Z,98568.57
2018-04-23T05:18:12.471Z,98560.87
2018-04-23T05:20:39.894Z,98566.52
2018-04-23T05:23:08.065Z,98566.70
2018-04-23T05:25:35.462Z,98565.89
2018-04-23T05:28:02.856Z,98572.01
2018-04-23T05:30:31.434Z,98573.14
2018-04-23T05:32:58.817Z,98571.23
2018-04-23T05:35:26.214Z,98569.01
2018-04-23T05:37:53.640Z,98571.66
2018-04-23T05:40:21.161Z,98574.58
2018-04-23T05:42:48.563Z,98572.01
2018-04-23T05:45:15.960Z,98574.91
2018-04-23T05:47:43.362Z,98579.00
2018-04-23T05:50:10.765Z,98577.81
2018-04-23T05:52:38.856Z,98577.40
2018-04-23T05:55:06.625Z,98581.52
2018-04-23T05:57:34.028Z,98576.63
2018-04-23T06:00:01.449Z,98575.22
2018-04-23T06:02:28.824Z,98575.33
2018-04-23T06:04:56.292Z,98568.25
2018-04-23T06:07:23.688Z,98577.75
2018-04-23T06:09:51.071Z,98581.23
2018-04-23T06:12:18.465Z,98578.86
2018-04-23T06:14:45.884Z,98579.35
2018-04-23T06:17:13.288Z,98583.66
2018-04-23T06:19:40.700Z,98578.11
2018-04-23T06:22:08.193Z,98577.95
2018-04-23T06:24:35.645Z,98571.94
2018-04-23T06:27:03.740Z,98571.09
2018-04-23T06:29:31.119Z,98563.94
2018-04-23T06:31:58.688Z,98573.92
2018-04-23T06:34:26.083Z,98586.13
2018-04-23T06:36:53.474Z,98581.00
2018-04-23T06:39:20.890Z,98584.05
2018-04-23T06:41:48.283Z,98592.03
2018-04-23T06:44:15.693Z,98595.45
2018-04-23T06:46:43.833Z,98597.50
2018-04-23T06:49:11.223Z,98608.83
2018-04-23T06:51:38.616Z,98609.80
2018-04-23T06:54:06.412Z,98617.64
2018-04-23T06:56:34.093Z,98622.74
2018-04-23T06:59:01.545Z,98620.31
2018-04-23T07:01:28.887Z,98625.16
2018-04-23T07:03:57.419Z,98624.61
2018-04-23T07:06:24.793Z,98624.59
2018-04-23T07:08:52.984Z,98640.80
2018-04-23T07:11:20.516Z,98647.85
2018-04-23T07:13:47.910Z,98653.55
2018-04-23T07:16:15.305Z,98659.36
2018-04-23T07:18:42.687Z,98675.66
2018-04-23T07:21:10.088Z,98677.70
2018-04-23T07:23:37.499Z,98686.27
2018-04-23T07:26:04.877Z,98688.94
2018-04-23T07:28:32.276Z,98695.01
2018-04-23T07:30:59.685Z,98709.06
2018-04-23T07:33:28.102Z,98708.58
2018-04-23T07:35:55.488Z,98713.27
2018-04-23T07:38:22.879Z,98714.11
2018-04-23T07:40:50.316Z,98715.50
2018-04-23T07:43:17.699Z,98720.98
2018-04-23T07:45:45.088Z,98731.36
2018-04-23T07:48:12.488Z,98737.67
2018-04-23T07:50:39.860Z,98744.55
2018-04-23T07:53:08.404Z,98743.07
2018-04-23T07:55:36.005Z,98756.66
2018-04-23T07:58:03.581Z,98765.34
2018-04-23T08:00:30.968Z,98766.81
2018-04-23T08:02:58.363Z,98780.30
2018-04-23T08:05:25.748Z,98781.98
2018-04-23T08:07:53.143Z,98777.58
2018-04-23T08:10:20.531Z,98786.12
2018-04-23T08:12:48.027Z,98783.86
2018-04-23T08:15:15.417Z,98781.39
2018-04-23T08:17:42.807Z,98792.98
2018-04-23T08:20:10.202Z,98798.45
2018-04-23T08:22:37.695Z,98797.13
2018-04-23T08:25:05.077Z,98797.88
2018-04-23T08:27:32.483Z,98794.31
2018-04-23T08:30:01.009Z,98796.73
2018-04-23T08:32:28.401Z,98790.77
2018-04-23T08:34:55.825Z,98793.72
2018-04-23T08:37:23.224Z,98790.60
2018-04-23T08:39:50.620Z,98781.34
2018-04-23T08:42:17.997Z,98786.52
2018-04-23T08:44:45.395Z,98768.19
2018-04-23T08:47:12.792Z,98775.38
2018-04-23T08:49:41.022Z,98783.46
2018-04-23T08:52:08.396Z,98787.20
2018-04-23T08:54:35.799Z,98785.20
2018-04-23T08:57:03.464Z,98775.72
2018-04-23T08:59:30.872Z,98782.98
2018-04-23T09:01:58.248Z,98777.75
2018-04-23T09:04:25.942Z,98773.57
2018-04-23T09:06:53.557Z,98778.35
2018-04-23T09:09:20.956Z,98771.64
2018-04-23T09:11:48.340Z,98771.76
2018-04-23T09:14:16.056Z,98776.31
2018-04-23T09:16:43.438Z,98785.98
2018-04-23T09:19:11.312Z,98788.32
2018-04-23T09:21:39.457Z,98790.67
2018-04-23T09:24:06.931Z,98799.37
2018-04-23T09:26:34.306Z,98790.33
2018-04-23T09:29:01.927Z,98789.75
2018-04-23T09:31:29.743Z,98790.61
2018-04-23T09:33:57.135Z,98789.53
2018-04-23T09:36:24.511Z,98786.52
2018-04-23T09:38:52.292Z,98795.53
2018-04-23T09:41:19.705Z,98793.00
2018-04-23T09:43:47.084Z,98793.06
2018-04-23T09:46:14.483Z,98792.64
2018-04-23T09:48:42.656Z,98790.78
2018-04-23T09:51:10.050Z,98786.27
2018-04-23T09:53:37.437Z,98784.73
2018-04-23T09:56:04.835Z,98793.47
2018-04-23T09:58:32.872Z,98791.98
2018-04-23T10:01:00.883Z,98782.03
2018-04-23T10:03:33.889Z,98782.89
2018-04-23T10:06:02.206Z,98779.30
2018-04-23T10:08:29.569Z,98785.31
2018-04-23T10:10:57.599Z,98787.94
2018-04-23T10:13:25.019Z,98791.36
2018-04-23T10:15:52.713Z,98791.85
2018-04-23T10:18:20.105Z,98791.52
2018-04-23T10:20:47.497Z,98788.68
2018-04-23T10:23:14.884Z,98789.84
2018-04-23T10:25:42.292Z,98793.22
2018-04-23T10:28:09.690Z,98777.56
2018-04-23T10:30:37.160Z,98784.89
2018-04-23T10:33:05.273Z,98780.22
2018-04-23T10:35:32.674Z,98785.72
2018-04-23T10:38:00.069Z,98782.81
2018-04-23T10:40:27.472Z,98789.69
2018-04-23T10:42:54.907Z,98787.41
2018-04-23T10:45:22.307Z,98789.25
2018-04-23T10:47:50.133Z,98782.55
2018-04-23T10:50:17.532Z,98784.16
2018-04-23T10:52:44.938Z,98779.78
2018-04-23T10:55:12.347Z,98790.23
2018-04-23T10:57:39.725Z,98789.93
2018-04-23T11:00:07.115Z,98797.13
2018-04-23T11:02:34.539Z,98790.33
2018-04-23T11:05:01.925Z,98787.36
2018-04-23T11:07:29.391Z,98789.67
2018-04-23T11:09:56.768Z,98788.94
2018-04-23T11:12:24.552Z,98790.13
2018-04-23T11:14:51.945Z,98785.79
2018-04-23T11:17:19.589Z,98786.27
2018-04-23T11:19:46.975Z,98786.75
2018-04-23T11:22:15.460Z,98788.61
2018-04-23T11:24:42.856Z,98787.76
2018-04-23T11:27:10.235Z,98789.22
2018-04-23T11:29:37.632Z,98777.02
2018-04-23T11:32:05.018Z,98780.99
2018-04-23T11:34:32.409Z,98784.49
2018-04-23T11:36:59.803Z,98786.54
2018-04-23T11:39:28.697Z,98789.34
2018-04-23T11:41:56.174Z,98787.98
2018-04-23T11:44:23.555Z,98786.00
2018-04-23T11:46:51.119Z,98784.24
2018-04-23T11:49:19.336Z,98787.33
2018-04-23T11:51:46.728Z,98779.02
2018-04-23T11:54:14.120Z,98787.24
2018-04-23T11:56:41.605Z,98782.02
2018-04-23T11:59:09.437Z,98785.00
2018-04-23T12:01:36.837Z,98791.03
2018-04-23T22:02:39.335Z,98946.38
2018-04-23T22:05:07.005Z,98950.84
2018-04-23T22:07:34.409Z,98951.38
2018-04-23T22:10:01.817Z,98957.87
2018-04-23T22:12:29.191Z,98960.14
2018-04-23T22:14:56.602Z,98960.70
2018-04-23T22:17:24.022Z,98962.16
2018-04-23T22:19:51.448Z,98963.22
2018-04-23T22:22:19.001Z,98962.16
2018-04-23T22:24:46.401Z,98955.02
2018-04-23T22:27:14.004Z,98954.05
2018-04-23T22:29:41.413Z,98958.38
2018-04-23T22:32:09.533Z,98958.92
2018-04-23T22:34:36.859Z,98957.30
2018-04-23T22:37:04.256Z,98958.56
2018-04-23T22:39:32.146Z,98962.17
2018-04-23T22:41:59.546Z,98955.55
2018-04-23T22:44:27.840Z,98964.83
2018-04-23T22:46:55.215Z,98965.52
2018-04-23T22:49:22.617Z,98966.29
2018-04-23T22:51:50.028Z,98971.20
2018-04-23T22:54:17.582Z,98971.03
2018-04-23T22:56:44.959Z,98973.55
2018-04-23T22:59:12.365Z,98968.53
2018-04-23T23:01:39.767Z,98969.66
2018-04-23T23:04:07.955Z,98969.11
2018-04-23T23:06:35.338Z,98964.42
2018-04-23T23:09:02.726Z,98964.94
2018-04-23T23:11:30.228Z,98967.91
2018-04-23T23:13:57.616Z,98964.93
2018-04-23T23:16:25.025Z,98961.36
2018-04-23T23:18:52.453Z,98964.30
2018-04-23T23:21:19.934Z,98960.47
2018-04-23T23:23:47.321Z,98958.05
2018-04-23T23:26:14.728Z,98963.26
2018-04-23T23:28:42.107Z,98958.95
2018-04-23T23:31:09.520Z,98960.67
2018-04-23T23:33:36.915Z,98961.59
2018-04-23T23:36:04.315Z,98954.41
2018-04-23T23:38:31.744Z,98955.04
2018-04-23T23:40:59.135Z,98955.25
2018-04-23T23:43:26.520Z,98958.36
2018-04-23T23:45:53.917Z,98967.20
2018-04-23T23:48:21.348Z,98971.31
2018-04-23T23:50:48.770Z,98967.81
2018-04-23T23:53:16.151Z,98970.50
2018-04-23T23:55:44.175Z,98971.46
2018-04-23T23:58:12.195Z,98964.72
